Time;durP1;ratioP1;P1;durP2;ratioP2;P2;SDS_P1;SDS_P2;PMS_P1;PMS_P2;Temp;Humidity;BMP_temperature;BMP_pressure;BME280_temperature;BME280_humidity;BME280_pressure;Samples;Min_cycle;Max_cycle;Signal;HPM_P1;HPM_P2
2023/05/30 00:01:38;;;;;;;4.00;1.60;;;;;;;;;;5020660;28;20029;-81
2023/05/30 00:04:04;;;;;;;2.67;1.30;;;;;;;;;;5037377;28;20041;-81
2023/05/30 00:06:29;;;;;;;5.00;1.67;;;;;;;;;;5036905;28;20048;-80
2023/05/30 00:08:55;;;;;;;3.22;1.40;;;;;;;;;;5004173;28;20024;-80
2023/05/30 00:11:23;;;;;;;3.80;1.38;;;;;;;;;;5037051;28;20035;-80
2023/05/30 00:13:49;;;;;;;5.25;1.38;;;;;;;;;;5037715;28;20502;-80
2023/05/30 00:16:15;;;;;;;3.13;1.52;;;;;;;;;;5037294;28;20060;-80
2023/05/30 00:18:41;;;;;;;4.07;1.42;;;;;;;;;;5054698;28;20525;-80
2023/05/30 00:21:07;;;;;;;6.50;1.52;;;;;;;;;;5055065;28;20033;-80
2023/05/30 00:23:35;;;;;;;5.18;1.83;;;;;;;;;;5054878;28;20048;-79
2023/05/30 00:26:01;;;;;;;4.10;1.20;;;;;;;;;;5036859;28;20365;-80
2023/05/30 00:28:27;;;;;;;2.38;1.30;;;;;;;;;;5036676;28;20111;-80
2023/05/30 00:30:53;;;;;;;6.18;1.60;;;;;;;;;;5020306;28;20073;-80
2023/05/30 00:33:20;;;;;;;3.25;1.23;;;;;;;;;;5020024;28;20021;-80
2023/05/30 00:35:45;;;;;;;3.38;1.30;;;;;;;;;;5020027;28;20062;-80
2023/05/30 00:38:11;;;;;;;3.17;1.45;;;;;;;;;;5020672;28;20455;-80
2023/05/30 00:40:36;;;;;;;3.10;1.40;;;;;;;;;;5054152;28;20031;-80
2023/05/30 00:43:01;;;;;;;3.80;1.50;;;;;;;;;;5054456;28;20029;-80
2023/05/30 00:45:27;;;;;;;3.15;1.38;;;;;;;;;;5036390;28;20029;-80
2023/05/30 00:47:53;;;;;;;3.70;1.45;;;;;;;;;;5036246;28;20035;-80
2023/05/30 00:50:19;;;;;;;4.05;1.45;;;;;;;;;;5036703;28;20075;-80
2023/05/30 00:52:46;;;;;;;3.60;1.42;;;;;;;;;;5036557;28;20025;-80
2023/05/30 00:55:12;;;;;;;4.28;1.48;;;;;;;;;;5019689;28;20468;-80
2023/05/30 00:57:39;;;;;;;4.20;1.33;;;;;;;;;;5019616;28;20083;-79
2023/05/30 01:00:05;;;;;;;5.03;1.50;;;;;;;;;;5036353;28;20075;-80
2023/05/30 01:02:34;;;;;;;3.63;1.50;;;;;;;;;;5035995;28;20427;-80
2023/05/30 01:05:00;;;;;;;3.95;1.48;;;;;;;;;;5054753;28;20495;-80
2023/05/30 01:07:27;;;;;;;2.15;1.40;;;;;;;;;;5019514;28;20028;-80
2023/05/30 01:09:53;;;;;;;2.65;1.52;;;;;;;;;;5019636;28;20029;-80
2023/05/30 01:12:28;;;;;;;2.33;1.52;;;;;;;;;;5053819;28;20032;-80
2023/05/30 01:15:04;;;;;;;6.70;1.80;;;;;;;;;;5036559;28;20479;-80
2023/05/30 01:17:40;;;;;;;5.13;1.63;;;;;;;;;;5035102;28;20060;-81
2023/05/30 01:20:12;;;;;;;2.30;1.30;;;;;;;;;;5035905;28;20384;-81
2023/05/30 01:23:15;;;;;;;3.05;1.45;;;;;;;;;;5035801;28;20021;-79
2023/05/30 01:26:14;;;;;;;2.38;1.20;;;;;;;;;;5035673;28;20021;-80
2023/05/30 01:28:40;;;;;;;3.22;1.38;;;;;;;;;;5044566;28;20565;-80
2023/05/30 01:31:07;;;;;;;2.72;1.25;;;;;;;;;;5035706;28;20048;-80
2023/05/30 01:33:33;;;;;;;3.13;1.30;;;;;;;;;;5019140;28;20163;-81
2023/05/30 01:35:58;;;;;;;5.38;1.77;;;;;;;;;;5035882;28;20068;-81
2023/05/30 01:38:24;;;;;;;3.58;1.52;;;;;;;;;;5035503;28;20043;-80
2023/05/30 01:40:52;;;;;;;3.47;1.40;;;;;;;;;;5053328;28;20557;-81
2023/05/30 01:43:29;;;;;;;2.97;1.55;;;;;;;;;;5035585;28;20071;-80
2023/05/30 01:45:54;;;;;;;4.10;1.63;;;;;;;;;;5053218;28;20100;-80
2023/05/30 01:48:59;;;;;;;4.80;1.70;;;;;;;;;;5053283;28;20064;-80
2023/05/30 01:51:36;;;;;;;2.70;1.20;;;;;;;;;;4953437;29;20112;-80
2023/05/30 01:54:03;;;;;;;3.78;1.23;;;;;;;;;;4953168;29;20035;-81
2023/05/30 01:56:30;;;;;;;4.10;1.45;;;;;;;;;;4992155;28;20037;-80
2023/05/30 01:58:56;;;;;;;2.28;1.38;;;;;;;;;;5035066;28;20035;-80
2023/05/30 02:01:24;;;;;;;4.05;1.80;;;;;;;;;;5018638;28;20029;-81
2023/05/30 02:03:50;;;;;;;3.33;1.20;;;;;;;;;;5035784;28;20033;-80
2023/05/30 02:06:15;;;;;;;5.80;1.60;;;;;;;;;;5053469;28;20029;-81
2023/05/30 02:08:41;;;;;;;3.00;1.50;;;;;;;;;;5018639;28;20108;-79
2023/05/30 02:11:06;;;;;;;2.67;1.48;;;;;;;;;;5018557;28;20029;-79
2023/05/30 02:13:32;;;;;;;5.50;1.52;;;;;;;;;;5053480;28;20035;-79
2023/05/30 02:15:58;;;;;;;6.50;1.50;;;;;;;;;;5035569;28;20495;-79
2023/05/30 02:18:27;;;;;;;2.40;1.50;;;;;;;;;;5053328;28;20037;-80
2023/05/30 02:20:53;;;;;;;2.95;1.33;;;;;;;;;;5052859;28;20032;-82
2023/05/30 02:23:19;;;;;;;3.85;1.75;;;;;;;;;;5035034;28;20025;-81
2023/05/30 02:25:44;;;;;;;4.00;1.55;;;;;;;;;;5018482;28;20025;-81
2023/05/30 02:28:10;;;;;;;4.55;1.40;;;;;;;;;;5018742;28;20033;-81
2023/05/30 02:30:35;;;;;;;3.47;1.60;;;;;;;;;;5056659;28;20112;-81
2023/05/30 02:33:01;;;;;;;3.15;1.52;;;;;;;;;;5038748;28;20025;-80
2023/05/30 02:35:26;;;;;;;3.38;1.60;;;;;;;;;;5057869;28;20465;-80
2023/05/30 02:37:51;;;;;;;4.22;1.60;;;;;;;;;;5056645;28;20056;-81
2023/05/30 02:40:17;;;;;;;2.25;1.33;;;;;;;;;;5022196;28;20112;-80
2023/05/30 02:42:42;;;;;;;4.63;1.27;;;;;;;;;;5056337;28;20045;-79
2023/05/30 02:45:08;;;;;;;3.28;1.50;;;;;;;;;;5038561;28;20067;-79
2023/05/30 02:47:33;;;;;;;6.50;1.80;;;;;;;;;;5056342;28;20040;-80
2023/05/30 02:49:58;;;;;;;3.25;1.42;;;;;;;;;;5038952;28;20028;-79
2023/05/30 02:52:25;;;;;;;5.03;1.70;;;;;;;;;;5038819;28;20448;-79
2023/05/30 02:54:51;;;;;;;4.15;1.70;;;;;;;;;;5038399;28;20039;-79
2023/05/30 02:57:16;;;;;;;3.63;1.73;;;;;;;;;;5022009;28;20400;-79
2023/05/30 02:59:42;;;;;;;3.58;1.63;;;;;;;;;;5038714;28;20028;-79
2023/05/30 03:02:09;;;;;;;2.35;1.40;;;;;;;;;;5056166;28;20472;-78
2023/05/30 03:04:36;;;;;;;3.15;1.67;;;;;;;;;;5021932;28;20084;-79
2023/05/30 03:07:02;;;;;;;3.03;1.50;;;;;;;;;;5038510;28;20028;-79
2023/05/30 03:09:27;;;;;;;3.03;1.50;;;;;;;;;;5038335;28;20079;-78
2023/05/30 03:11:53;;;;;;;3.05;1.55;;;;;;;;;;5037906;28;20119;-79
2023/05/30 03:14:18;;;;;;;2.78;1.27;;;;;;;;;;5055973;28;20032;-79
2023/05/30 03:16:44;;;;;;;4.72;1.45;;;;;;;;;;5038045;28;20391;-79
2023/05/30 03:19:09;;;;;;;4.15;1.70;;;;;;;;;;5037977;28;20037;-79
2023/05/30 03:21:37;;;;;;;2.20;1.15;;;;;;;;;;5038138;28;20025;-80
2023/05/30 03:24:03;;;;;;;2.47;1.40;;;;;;;;;;5055729;28;20035;-78
2023/05/30 03:26:29;;;;;;;5.40;1.67;;;;;;;;;;5055918;28;20029;-79
2023/05/30 03:28:54;;;;;;;2.65;1.48;;;;;;;;;;5021227;28;20111;-80
2023/05/30 03:31:20;;;;;;;2.58;1.40;;;;;;;;;;5037711;28;20108;-79
2023/05/30 03:33:46;;;;;;;4.35;1.60;;;;;;;;;;5055426;28;20087;-79
2023/05/30 03:36:11;;;;;;;3.70;2.10;;;;;;;;;;5055245;28;20032;-79
2023/05/30 03:38:37;;;;;;;4.38;1.85;;;;;;;;;;5055403;28;20043;-79
2023/05/30 03:41:03;;;;;;;3.15;1.27;;;;;;;;;;5036850;28;20187;-79
2023/05/30 03:43:29;;;;;;;4.00;1.60;;;;;;;;;;5037517;28;20056;-81
2023/05/30 03:45:54;;;;;;;5.20;1.83;;;;;;;;;;5020844;28;20075;-80
2023/05/30 03:48:20;;;;;;;5.32;1.70;;;;;;;;;;5037592;28;20028;-80
2023/05/30 03:50:45;;;;;;;2.35;1.38;;;;;;;;;;5004348;28;20384;-80
2023/05/30 03:53:10;;;;;;;2.58;1.45;;;;;;;;;;5004247;28;20033;-80
2023/05/30 03:55:36;;;;;;;3.78;1.67;;;;;;;;;;5055024;28;20033;-80
2023/05/30 03:58:01;;;;;;;3.03;1.50;;;;;;;;;;5037261;28;20182;-80
2023/05/30 04:00:27;;;;;;;3.35;1.52;;;;;;;;;;5054797;28;20033;-80
2023/05/30 04:02:53;;;;;;;3.08;1.48;;;;;;;;;;5020680;28;20492;-80
2023/05/30 04:05:19;;;;;;;4.28;1.48;;;;;;;;;;5056252;28;20032;-80
2023/05/30 04:07:44;;;;;;;3.05;1.45;;;;;;;;;;5037267;28;20033;-80
2023/05/30 04:10:10;;;;;;;3.38;1.70;;;;;;;;;;5020702;28;20039;-80
2023/05/30 04:12:35;;;;;;;6.20;2.38;;;;;;;;;;5055206;28;20032;-80
2023/05/30 04:15:01;;;;;;;8.63;2.80;;;;;;;;;;5037444;28;20025;-78
2023/05/30 04:17:28;;;;;;;7.35;2.78;;;;;;;;;;5055097;28;20029;-80
2023/05/30 04:19:53;;;;;;;7.72;2.88;;;;;;;;;;5054800;28;20025;-81
2023/05/30 04:22:19;;;;;;;10.70;3.35;;;;;;;;;;5037256;28;20039;-80
2023/05/30 04:24:45;;;;;;;12.02;3.53;;;;;;;;;;5054654;28;20024;-80
2023/05/30 04:27:13;;;;;;;6.07;2.83;;;;;;;;;;5020983;28;20062;-80
2023/05/30 04:29:40;;;;;;;9.65;3.22;;;;;;;;;;5054569;28;20040;-81
2023/05/30 04:32:06;;;;;;;8.52;3.17;;;;;;;;;;5036779;28;20036;-80
2023/05/30 04:34:31;;;;;;;10.85;4.68;;;;;;;;;;5036780;28;20086;-81
2023/05/30 04:36:57;;;;;;;10.15;3.95;;;;;;;;;;5054693;28;20029;-82
2023/05/30 04:39:22;;;;;;;10.20;3.67;;;;;;;;;;5036685;28;20028;-82
2023/05/30 04:41:49;;;;;;;10.13;3.55;;;;;;;;;;5019915;28;20087;-80
2023/05/30 04:44:16;;;;;;;9.82;3.22;;;;;;;;;;5036649;28;20025;-80
2023/05/30 04:46:46;;;;;;;10.85;3.58;;;;;;;;;;5036249;28;20021;-80
2023/05/30 04:49:14;;;;;;;7.68;3.22;;;;;;;;;;5054044;28;20033;-78
2023/05/30 04:51:40;;;;;;;8.38;3.60;;;;;;;;;;5035991;28;20113;-79
2023/05/30 04:54:05;;;;;;;4.90;2.78;;;;;;;;;;5035690;28;20060;-80
2023/05/30 04:56:31;;;;;;;10.30;3.80;;;;;;;;;;5035957;28;20037;-80
2023/05/30 04:58:56;;;;;;;10.63;3.70;;;;;;;;;;5053988;28;20079;-82
2023/05/30 05:01:23;;;;;;;13.43;4.55;;;;;;;;;;5035900;28;20025;-81
2023/05/30 05:03:49;;;;;;;16.80;4.70;;;;;;;;;;5053766;28;20467;-81
2023/05/30 05:06:14;;;;;;;18.45;4.85;;;;;;;;;;5036150;28;20039;-80
2023/05/30 05:08:40;;;;;;;16.65;5.88;;;;;;;;;;5053801;28;20120;-80
2023/05/30 05:11:06;;;;;;;19.67;6.35;;;;;;;;;;5035932;28;20453;-80
2023/05/30 05:13:32;;;;;;;24.85;6.03;;;;;;;;;;5054120;28;20053;-81
2023/05/30 05:15:58;;;;;;;24.00;6.93;;;;;;;;;;5019660;28;20059;-81
2023/05/30 05:18:23;;;;;;;19.33;5.53;;;;;;;;;;5036257;28;20021;-81
2023/05/30 05:20:49;;;;;;;20.88;6.50;;;;;;;;;;5036228;28;20045;-81
2023/05/30 05:23:15;;;;;;;18.52;5.72;;;;;;;;;;5036104;28;20025;-81
2023/05/30 05:25:40;;;;;;;18.88;5.45;;;;;;;;;;5036071;28;20096;-81
2023/05/30 05:28:06;;;;;;;22.30;5.47;;;;;;;;;;5053593;28;20040;-82
2023/05/30 05:30:32;;;;;;;16.85;5.13;;;;;;;;;;5053648;28;20221;-81
2023/05/30 05:32:57;;;;;;;18.50;5.05;;;;;;;;;;5053574;28;20056;-79
2023/05/30 05:35:23;;;;;;;14.68;5.05;;;;;;;;;;5035799;28;20115;-82
2023/05/30 05:37:48;;;;;;;11.55;4.28;;;;;;;;;;5053733;28;20032;-82
2023/05/30 05:40:14;;;;;;;16.67;4.65;;;;;;;;;;5053616;28;20107;-82
2023/05/30 05:42:40;;;;;;;13.68;4.40;;;;;;;;;;5035035;28;20041;-82
2023/05/30 05:45:06;;;;;;;12.27;4.05;;;;;;;;;;5019081;28;20040;-82
2023/05/30 05:47:32;;;;;;;9.73;3.65;;;;;;;;;;5035696;28;20044;-82
2023/05/30 05:49:57;;;;;;;9.32;3.47;;;;;;;;;;5018832;28;20028;-82
2023/05/30 05:52:23;;;;;;;9.15;3.03;;;;;;;;;;5035426;28;20531;-81
2023/05/30 05:54:49;;;;;;;7.32;2.97;;;;;;;;;;5035452;28;20542;-82
2023/05/30 05:57:14;;;;;;;7.90;2.92;;;;;;;;;;5053222;28;20037;-82
2023/05/30 05:59:40;;;;;;;8.77;2.88;;;;;;;;;;5035172;28;20052;-81
2023/05/30 06:02:05;;;;;;;7.43;3.10;;;;;;;;;;5035712;28;20095;-81
2023/05/30 06:04:31;;;;;;;7.18;3.00;;;;;;;;;;5035571;28;20037;-81
2023/05/30 06:06:56;;;;;;;7.95;2.92;;;;;;;;;;5018834;28;20029;-81
2023/05/30 06:09:24;;;;;;;7.03;2.53;;;;;;;;;;5053248;28;20025;-81
2023/05/30 06:11:49;;;;;;;6.20;2.70;;;;;;;;;;5035661;28;20032;-81
2023/05/30 06:14:15;;;;;;;4.35;2.20;;;;;;;;;;5052874;28;20025;-81
2023/05/30 06:16:40;;;;;;;5.90;2.20;;;;;;;;;;5053266;28;20087;-81
2023/05/30 06:19:06;;;;;;;4.93;2.20;;;;;;;;;;5035027;28;20116;-81
2023/05/30 06:21:32;;;;;;;6.00;2.55;;;;;;;;;;5053363;28;20028;-81
2023/05/30 06:23:59;;;;;;;5.68;2.10;;;;;;;;;;5053325;28;20033;-81
2023/05/30 06:26:25;;;;;;;5.22;2.40;;;;;;;;;;5053138;28;20033;-81
2023/05/30 06:28:50;;;;;;;5.13;2.50;;;;;;;;;;5052715;28;20061;-81
2023/05/30 06:31:16;;;;;;;5.85;2.25;;;;;;;;;;5035126;28;20392;-81
2023/05/30 06:33:41;;;;;;;3.50;2.15;;;;;;;;;;5053150;28;20102;-81
2023/05/30 06:36:07;;;;;;;5.55;2.05;;;;;;;;;;5018627;28;20435;-81
2023/05/30 06:38:32;;;;;;;3.75;2.20;;;;;;;;;;5035106;28;20033;-81
2023/05/30 06:40:58;;;;;;;2.95;1.70;;;;;;;;;;5053057;28;20052;-81
2023/05/30 06:43:23;;;;;;;3.20;2.03;;;;;;;;;;5034605;28;20053;-80
2023/05/30 06:45:49;;;;;;;3.20;2.20;;;;;;;;;;5035023;28;20476;-81
2023/05/30 06:48:14;;;;;;;4.85;2.00;;;;;;;;;;5052777;28;20029;-80
2023/05/30 06:50:40;;;;;;;7.20;1.98;;;;;;;;;;5035166;28;20065;-79
2023/05/30 06:53:05;;;;;;;4.03;1.90;;;;;;;;;;5034982;28;20036;-79
2023/05/30 06:55:30;;;;;;;3.75;1.92;;;;;;;;;;5052818;28;20029;-81
2023/05/30 06:57:56;;;;;;;3.63;2.00;;;;;;;;;;5052635;28;20029;-80
2023/05/30 07:00:22;;;;;;;4.35;2.22;;;;;;;;;;5052583;28;20049;-83
2023/05/30 07:02:47;;;;;;;6.82;2.00;;;;;;;;;;5035058;28;20502;-83
2023/05/30 07:05:13;;;;;;;3.47;1.83;;;;;;;;;;5034653;28;20041;-82
2023/05/30 07:07:39;;;;;;;6.50;1.80;;;;;;;;;;5034895;28;20136;-84
2023/05/30 07:10:06;;;;;;;6.93;2.20;;;;;;;;;;5034937;28;20092;-82
2023/05/30 07:12:32;;;;;;;4.72;1.83;;;;;;;;;;5052383;28;20032;-82
2023/05/30 07:14:58;;;;;;;4.85;1.90;;;;;;;;;;5018229;28;20147;-80
2023/05/30 07:17:23;;;;;;;7.10;2.00;;;;;;;;;;5021830;28;20108;-81
2023/05/30 07:19:49;;;;;;;4.35;1.80;;;;;;;;;;5038295;28;20143;-81
2023/05/30 07:22:14;;;;;;;9.05;2.08;;;;;;;;;;5056018;28;20031;-80
2023/05/30 07:24:40;;;;;;;9.50;1.90;;;;;;;;;;5056402;28;20036;-80
2023/05/30 07:27:06;;;;;;;5.32;2.10;;;;;;;;;;5038584;28;20032;-81
2023/05/30 07:29:31;;;;;;;12.40;2.10;;;;;;;;;;5056055;28;20063;-81
2023/05/30 07:31:56;;;;;;;7.63;2.53;;;;;;;;;;5055870;28;20400;-80
2023/05/30 07:34:22;;;;;;;7.80;2.25;;;;;;;;;;5051367;28;20041;-81
2023/05/30 07:36:47;;;;;;;7.95;1.98;;;;;;;;;;5035168;28;20103;-81
2023/05/30 07:39:12;;;;;;;9.15;2.22;;;;;;;;;;5036171;28;20041;-81
2023/05/30 07:41:38;;;;;;;9.07;2.33;;;;;;;;;;5018826;28;20054;-81
2023/05/30 07:44:03;;;;;;;5.70;1.88;;;;;;;;;;5017895;28;20172;-81
2023/05/30 07:46:29;;;;;;;6.10;2.20;;;;;;;;;;5035196;28;20052;-81
2023/05/30 07:48:54;;;;;;;4.68;1.83;;;;;;;;;;5017572;28;20503;-81
2023/05/30 07:51:22;;;;;;;6.05;1.90;;;;;;;;;;5035442;28;20476;-81
2023/05/30 07:53:47;;;;;;;5.63;1.90;;;;;;;;;;5001603;28;20036;-81
2023/05/30 07:56:12;;;;;;;4.82;1.75;;;;;;;;;;5017474;28;20029;-81
2023/05/30 07:58:38;;;;;;;6.28;2.63;;;;;;;;;;5017253;28;20511;-81
2023/05/30 08:01:04;;;;;;;7.15;1.95;;;;;;;;;;5017530;28;20033;-81
2023/05/30 08:03:30;;;;;;;9.02;2.40;;;;;;;;;;5017392;28;20116;-82
2023/05/30 08:05:55;;;;;;;6.35;1.85;;;;;;;;;;5017298;28;20526;-81
2023/05/30 08:08:21;;;;;;;3.55;1.88;;;;;;;;;;5017212;28;20491;-82
2023/05/30 08:10:46;;;;;;;4.35;2.00;;;;;;;;;;5034546;28;20053;-81
2023/05/30 08:13:13;;;;;;;6.68;1.83;;;;;;;;;;5017450;28;20026;-81
2023/05/30 08:15:39;;;;;;;3.80;1.83;;;;;;;;;;5034839;28;20026;-81
2023/05/30 08:18:04;;;;;;;5.30;2.08;;;;;;;;;;5000568;28;20033;-81
2023/05/30 08:20:30;;;;;;;5.18;1.73;;;;;;;;;;5034454;28;20396;-81
2023/05/30 08:22:56;;;;;;;5.60;1.83;;;;;;;;;;5017262;28;20381;-81
2023/05/30 08:25:28;;;;;;;3.63;1.73;;;;;;;;;;5034735;28;20073;-81
2023/05/30 08:27:57;;;;;;;5.90;1.98;;;;;;;;;;5017654;28;20026;-81
2023/05/30 08:30:23;;;;;;;5.55;1.90;;;;;;;;;;5016828;28;20472;-81
2023/05/30 08:32:50;;;;;;;5.13;1.65;;;;;;;;;;5000633;28;20033;-81
2023/05/30 08:35:16;;;;;;;2.75;1.70;;;;;;;;;;5034737;28;20112;-81
2023/05/30 08:37:41;;;;;;;3.65;1.70;;;;;;;;;;5035379;28;20053;-81
2023/05/30 08:40:09;;;;;;;7.13;1.90;;;;;;;;;;5017106;28;20080;-81
2023/05/30 08:42:35;;;;;;;7.47;2.00;;;;;;;;;;5016722;28;20054;-81
2023/05/30 08:45:00;;;;;;;3.88;1.67;;;;;;;;;;5034568;28;20387;-80
2023/05/30 08:47:26;;;;;;;4.53;1.73;;;;;;;;;;5000598;28;20036;-80
2023/05/30 08:49:52;;;;;;;5.28;1.67;;;;;;;;;;5016714;28;20405;-81
2023/05/30 08:52:19;;;;;;;5.38;1.88;;;;;;;;;;5017054;28;20057;-82
2023/05/30 08:54:51;;;;;;;3.85;1.70;;;;;;;;;;5014899;28;20437;-81
2023/05/30 08:57:24;;;;;;;4.90;1.85;;;;;;;;;;5016736;28;20113;-81
2023/05/30 08:59:49;;;;;;;4.88;1.50;;;;;;;;;;5017839;28;20195;-81
2023/05/30 09:02:15;;;;;;;5.45;1.85;;;;;;;;;;5016399;28;20463;-81
2023/05/30 09:04:42;;;;;;;2.33;1.50;;;;;;;;;;5016647;28;20037;-82
2023/05/30 09:07:08;;;;;;;4.97;1.75;;;;;;;;;;5016267;28;20030;-81
2023/05/30 09:09:33;;;;;;;4.50;2.00;;;;;;;;;;5033681;28;20036;-81
2023/05/30 09:11:59;;;;;;;2.00;1.50;;;;;;;;;;4999897;28;20497;-82
2023/05/30 09:14:24;;;;;;;6.45;1.80;;;;;;;;;;5016073;28;20388;-82
2023/05/30 09:16:50;;;;;;;3.22;1.58;;;;;;;;;;5034040;28;20480;-81
2023/05/30 09:19:15;;;;;;;3.40;1.63;;;;;;;;;;5016032;28;20369;-81
2023/05/30 09:21:41;;;;;;;7.20;1.80;;;;;;;;;;5016244;28;20480;-81
2023/05/30 09:24:06;;;;;;;2.97;1.63;;;;;;;;;;5015925;28;20025;-82
2023/05/30 09:26:35;;;;;;;3.85;1.95;;;;;;;;;;5015914;28;20037;-81
2023/05/30 09:29:10;;;;;;;3.75;1.77;;;;;;;;;;4999650;28;20033;-81
2023/05/30 09:31:36;;;;;;;4.20;1.58;;;;;;;;;;5015689;28;20498;-81
2023/05/30 09:34:02;;;;;;;5.60;1.88;;;;;;;;;;5015871;28;20480;-81
2023/05/30 09:36:28;;;;;;;5.22;1.70;;;;;;;;;;5015717;28;20080;-81
2023/05/30 09:38:58;;;;;;;2.35;1.80;;;;;;;;;;5015233;28;20535;-83
2023/05/30 09:41:25;;;;;;;3.85;1.55;;;;;;;;;;4999148;28;20040;-82
2023/05/30 09:43:54;;;;;;;5.82;2.00;;;;;;;;;;5033357;28;20029;-82
2023/05/30 09:46:25;;;;;;;3.97;1.85;;;;;;;;;;4999347;28;20033;-82
2023/05/30 09:48:51;;;;;;;4.20;1.80;;;;;;;;;;5015746;28;20040;-81
2023/05/30 09:51:18;;;;;;;3.83;1.70;;;;;;;;;;4997014;28;20017;-81
2023/05/30 09:54:01;;;;;;;5.18;1.85;;;;;;;;;;5015464;28;20498;-80
2023/05/30 09:56:36;;;;;;;5.75;1.83;;;;;;;;;;5009762;28;20492;-80
2023/05/30 09:59:07;;;;;;;5.32;1.80;;;;;;;;;;4979486;28;20032;-79
2023/05/30 10:01:37;;;;;;;5.40;2.20;;;;;;;;;;5002215;28;20049;-80
2023/05/30 10:04:15;;;;;;;4.50;2.17;;;;;;;;;;5015490;28;20041;-79
2023/05/30 10:06:43;;;;;;;4.30;1.65;;;;;;;;;;5015029;28;20038;-80
2023/05/30 10:09:09;;;;;;;4.32;2.33;;;;;;;;;;5015305;28;20535;-79
2023/05/30 10:11:37;;;;;;;5.35;2.08;;;;;;;;;;5032741;28;20030;-79
2023/05/30 10:14:02;;;;;;;2.63;1.60;;;;;;;;;;4998900;28;20018;-79
2023/05/30 10:16:28;;;;;;;3.28;1.90;;;;;;;;;;5015933;28;20057;-80
2023/05/30 10:18:56;;;;;;;4.53;2.00;;;;;;;;;;4999112;28;20034;-79
2023/05/30 10:21:22;;;;;;;4.32;2.00;;;;;;;;;;4998432;28;20495;-79
2023/05/30 10:23:49;;;;;;;4.13;2.17;;;;;;;;;;5015096;28;20492;-80
2023/05/30 10:26:16;;;;;;;5.68;1.90;;;;;;;;;;4998805;28;20033;-81
2023/05/30 10:28:43;;;;;;;2.90;1.65;;;;;;;;;;5015393;28;20025;-79
2023/05/30 10:31:11;;;;;;;3.58;1.73;;;;;;;;;;5015005;28;20487;-81
2023/05/30 10:33:37;;;;;;;5.55;2.15;;;;;;;;;;5015042;28;20136;-81
2023/05/30 10:36:03;;;;;;;3.30;1.77;;;;;;;;;;5014758;28;20116;-80
2023/05/30 10:38:31;;;;;;;3.30;1.88;;;;;;;;;;5032796;28;20116;-82
2023/05/30 10:41:22;;;;;;;8.75;2.40;;;;;;;;;;4998610;28;20445;-82
2023/05/30 10:44:33;;;;;;;4.18;1.70;;;;;;;;;;5032445;28;20595;-80
2023/05/30 10:47:20;;;;;;;10.77;2.10;;;;;;;;;;5028618;28;20104;-80
2023/05/30 10:49:47;;;;;;;3.10;1.85;;;;;;;;;;4999671;28;20116;-81
2023/05/30 10:52:17;;;;;;;5.65;1.83;;;;;;;;;;5018831;28;20502;-80
2023/05/30 10:54:44;;;;;;;6.53;1.85;;;;;;;;;;5018673;28;20041;-81
2023/05/30 10:57:32;;;;;;;7.90;2.22;;;;;;;;;;5036816;28;20089;-80
2023/05/30 11:00:09;;;;;;;4.88;2.10;;;;;;;;;;5036353;28;20465;-81
2023/05/30 11:02:36;;;;;;;6.93;2.35;;;;;;;;;;4988665;28;20025;-80
2023/05/30 11:05:07;;;;;;;5.28;2.60;;;;;;;;;;5018748;28;20043;-79
2023/05/30 11:07:40;;;;;;;5.55;2.08;;;;;;;;;;5018706;28;20033;-80
2023/05/30 11:10:14;;;;;;;5.30;2.00;;;;;;;;;;5018789;28;20033;-80
2023/05/30 11:12:44;;;;;;;5.68;2.10;;;;;;;;;;5036218;28;20104;-80
2023/05/30 11:15:14;;;;;;;3.70;1.95;;;;;;;;;;4999633;28;20116;-80
2023/05/30 11:17:41;;;;;;;5.15;2.22;;;;;;;;;;5035894;28;20580;-79
2023/05/30 11:20:16;;;;;;;4.07;2.10;;;;;;;;;;5006958;28;20032;-79
2023/05/30 11:23:03;;;;;;;4.47;1.90;;;;;;;;;;5015923;28;20374;-79
2023/05/30 11:25:30;;;;;;;3.53;1.73;;;;;;;;;;5029628;28;20029;-80
2023/05/30 11:28:04;;;;;;;6.78;1.70;;;;;;;;;;5018029;28;20104;-80
2023/05/30 11:30:32;;;;;;;7.15;1.88;;;;;;;;;;5017738;28;20033;-81
2023/05/30 11:32:59;;;;;;;4.43;2.05;;;;;;;;;;5018169;28;20459;-80
2023/05/30 11:35:28;;;;;;;3.28;1.50;;;;;;;;;;5037280;28;20041;-80
2023/05/30 11:37:54;;;;;;;4.13;1.90;;;;;;;;;;5035506;28;20040;-80
2023/05/30 11:40:23;;;;;;;3.35;1.58;;;;;;;;;;5016919;28;20052;-80
2023/05/30 11:42:52;;;;;;;1.83;1.33;;;;;;;;;;5017437;28;20493;-81
2023/05/30 11:45:30;;;;;;;3.72;1.65;;;;;;;;;;4990198;28;20034;-81
2023/05/30 11:48:06;;;;;;;3.38;1.65;;;;;;;;;;4997953;28;20030;-81
2023/05/30 11:50:39;;;;;;;4.00;1.88;;;;;;;;;;4981755;28;20030;-81
2023/05/30 11:53:12;;;;;;;3.55;1.65;;;;;;;;;;4997921;28;20034;-80
2023/05/30 11:55:37;;;;;;;2.60;1.57;;;;;;;;;;5015512;28;20384;-81
2023/05/30 11:58:03;;;;;;;4.70;1.50;;;;;;;;;;4981621;28;20139;-80
2023/05/30 12:00:28;;;;;;;3.35;1.80;;;;;;;;;;5015515;28;20472;-79
2023/05/30 12:02:53;;;;;;;2.92;1.52;;;;;;;;;;4997317;28;20073;-80
2023/05/30 12:05:19;;;;;;;7.75;1.70;;;;;;;;;;4998028;28;20061;-81
2023/05/30 12:07:49;;;;;;;3.03;1.55;;;;;;;;;;5015477;28;20026;-80
2023/05/30 12:10:14;;;;;;;2.65;1.50;;;;;;;;;;5015306;28;20050;-81
2023/05/30 12:12:40;;;;;;;7.45;1.73;;;;;;;;;;4997766;28;20076;-81
2023/05/30 12:15:06;;;;;;;3.67;2.00;;;;;;;;;;4997203;28;20037;-81
2023/05/30 12:17:33;;;;;;;2.33;1.45;;;;;;;;;;5015859;28;20403;-81
2023/05/30 12:20:00;;;;;;;6.22;1.70;;;;;;;;;;5016200;28;20036;-81
2023/05/30 12:22:30;;;;;;;4.65;2.08;;;;;;;;;;5016551;28;20145;-81
2023/05/30 12:24:56;;;;;;;6.25;1.60;;;;;;;;;;5000536;28;20033;-81
2023/05/30 12:27:25;;;;;;;3.88;1.70;;;;;;;;;;5034048;28;20029;-86
2023/05/30 12:29:50;;;;;;;5.45;1.55;;;;;;;;;;5016578;28;20476;-82
2023/05/30 12:32:26;;;;;;;4.25;1.40;;;;;;;;;;4999744;28;20045;-81
2023/05/30 12:34:53;;;;;;;3.13;1.50;;;;;;;;;;5016437;28;20037;-82
2023/05/30 12:37:18;;;;;;;4.78;1.65;;;;;;;;;;5016335;28;20025;-82
2023/05/30 12:39:56;;;;;;;3.00;1.50;;;;;;;;;;5033948;28;20366;-82
2023/05/30 12:42:27;;;;;;;1.38;1.25;;;;;;;;;;5016239;28;20049;-82
2023/05/30 12:44:56;;;;;;;1.60;1.13;;;;;;;;;;5016455;28;20729;-82
2023/05/30 12:47:22;;;;;;;4.90;1.38;;;;;;;;;;5016275;28;20052;-82
2023/05/30 12:49:48;;;;;;;4.45;1.48;;;;;;;;;;5016411;28;20097;-82
2023/05/30 12:52:15;;;;;;;4.15;1.30;;;;;;;;;;5001620;28;20066;-80
2023/05/30 12:54:41;;;;;;;6.32;1.50;;;;;;;;;;5035203;28;20029;-82
2023/05/30 12:57:08;;;;;;;4.78;1.33;;;;;;;;;;5016063;28;20025;-82
2023/05/30 12:59:34;;;;;;;1.52;1.15;;;;;;;;;;5016009;28;20028;-83
2023/05/30 13:01:59;;;;;;;2.00;1.25;;;;;;;;;;4999566;28;20025;-82
2023/05/30 13:04:25;;;;;;;1.50;1.00;;;;;;;;;;5015720;28;20446;-81
2023/05/30 13:06:50;;;;;;;2.28;1.30;;;;;;;;;;5033516;28;20029;-81
2023/05/30 13:09:16;;;;;;;2.90;1.20;;;;;;;;;;5033356;28;20033;-82
2023/05/30 13:11:42;;;;;;;1.30;1.10;;;;;;;;;;5015871;28;20030;-82
2023/05/30 13:14:07;;;;;;;1.70;1.20;;;;;;;;;;5033683;28;20036;-81
2023/05/30 13:16:34;;;;;;;7.72;1.48;;;;;;;;;;5015654;28;20025;-81
2023/05/30 13:19:00;;;;;;;1.67;1.17;;;;;;;;;;4998947;28;20017;-81
2023/05/30 13:21:25;;;;;;;9.93;1.52;;;;;;;;;;5015844;28;20029;-81
2023/05/30 13:23:50;;;;;;;4.88;1.40;;;;;;;;;;5015523;28;20029;-82
2023/05/30 13:26:16;;;;;;;2.17;1.08;;;;;;;;;;5015451;28;20040;-81
2023/05/30 13:28:41;;;;;;;2.97;1.20;;;;;;;;;;5015607;28;20036;-82
2023/05/30 13:31:07;;;;;;;3.97;1.20;;;;;;;;;;5032923;28;20029;-82
2023/05/30 13:33:33;;;;;;;7.93;1.33;;;;;;;;;;5032756;28;20092;-82
2023/05/30 13:35:58;;;;;;;1.42;1.08;;;;;;;;;;4982946;28;20088;-82
2023/05/30 13:38:25;;;;;;;3.63;1.63;;;;;;;;;;4998870;28;20029;-81
2023/05/30 13:40:51;;;;;;;4.82;1.17;;;;;;;;;;4999030;28;20059;-82
2023/05/30 13:43:17;;;;;;;2.00;1.15;;;;;;;;;;5032718;28;20152;-82
2023/05/30 13:45:42;;;;;;;3.30;1.15;;;;;;;;;;5015376;28;20093;-82
2023/05/30 13:48:08;;;;;;;2.55;1.10;;;;;;;;;;5032765;28;20076;-83
2023/05/30 13:50:34;;;;;;;10.93;1.60;;;;;;;;;;5032790;28;20029;-83
2023/05/30 13:53:00;;;;;;;3.92;1.15;;;;;;;;;;4998715;28;20032;-82
2023/05/30 13:55:25;;;;;;;3.35;1.35;;;;;;;;;;5032913;28;20108;-83
2023/05/30 13:57:51;;;;;;;3.40;1.58;;;;;;;;;;5035539;28;20072;-84
2023/05/30 14:00:17;;;;;;;1.40;1.27;;;;;;;;;;5016131;28;20029;-84
2023/05/30 14:02:42;;;;;;;1.40;1.30;;;;;;;;;;5032532;28;20100;-84
2023/05/30 14:05:08;;;;;;;4.15;1.20;;;;;;;;;;5033088;28;20040;-84
2023/05/30 14:07:34;;;;;;;3.15;1.20;;;;;;;;;;4998684;28;20036;-85
2023/05/30 14:09:59;;;;;;;1.73;1.30;;;;;;;;;;5015036;28;20501;-84
2023/05/30 14:12:26;;;;;;;2.92;1.30;;;;;;;;;;5015850;28;20025;-83
2023/05/30 14:14:52;;;;;;;3.30;1.27;;;;;;;;;;5014760;28;20116;-84
2023/05/30 14:17:18;;;;;;;2.13;1.27;;;;;;;;;;5032713;28;20034;-83
2023/05/30 14:19:43;;;;;;;3.28;1.17;;;;;;;;;;5014991;28;20029;-84
2023/05/30 14:22:10;;;;;;;1.83;1.10;;;;;;;;;;5032603;28;20033;-84
2023/05/30 14:24:37;;;;;;;2.03;1.00;;;;;;;;;;5033247;28;20124;-83
2023/05/30 14:27:03;;;;;;;1.63;1.35;;;;;;;;;;5002417;28;20120;-83
2023/05/30 14:29:29;;;;;;;6.15;1.55;;;;;;;;;;5002688;28;20395;-83
2023/05/30 14:31:54;;;;;;;3.00;1.30;;;;;;;;;;5036252;28;20073;-82
2023/05/30 14:34:20;;;;;;;7.10;1.65;;;;;;;;;;5018356;28;20480;-83
2023/05/30 14:36:45;;;;;;;3.95;1.20;;;;;;;;;;5036260;28;20113;-83
2023/05/30 14:39:11;;;;;;;4.88;1.05;;;;;;;;;;5018427;28;20080;-83
2023/05/30 14:41:36;;;;;;;3.38;1.20;;;;;;;;;;5036084;28;20049;-83